createdAt,value
2022-08-08T00:00:43.644Z,0
2022-08-08T00:01:50.204Z,0
2022-08-08T00:02:56.769Z,0
2022-08-08T00:04:03.324Z,0
2022-08-08T00:05:09.904Z,0
2022-08-08T00:06:16.452Z,0
2022-08-08T00:07:23.010Z,0
2022-08-08T00:08:29.574Z,0
2022-08-08T00:09:36.136Z,0
2022-08-08T00:10:42.692Z,0
2022-08-08T00:11:49.249Z,0
2022-08-08T00:12:55.811Z,0
2022-08-08T00:14:02.366Z,0
2022-08-08T00:15:08.925Z,0
2022-08-08T00:16:15.487Z,0
2022-08-08T00:17:22.045Z,0
2022-08-08T00:18:28.594Z,0
2022-08-08T00:19:35.163Z,0
2022-08-08T00:20:41.728Z,0
2022-08-08T00:21:48.283Z,0
2022-08-08T00:22:54.856Z,0
2022-08-08T00:24:01.410Z,0
2022-08-08T00:25:07.974Z,0
2022-08-08T00:26:14.549Z,0
2022-08-08T00:27:21.363Z,0
2022-08-08T00:28:28.146Z,0
2022-08-08T00:29:34.960Z,0
2022-08-08T00:30:41.767Z,0
2022-08-08T00:31:48.571Z,0
2022-08-08T00:32:55.386Z,0
2022-08-08T00:34:02.197Z,0
2022-08-08T00:35:09.018Z,0
2022-08-08T00:36:15.809Z,0
2022-08-08T00:37:22.623Z,0
2022-08-08T00:38:29.423Z,0
2022-08-08T00:39:36.246Z,0
2022-08-08T00:40:43.041Z,0
2022-08-08T00:41:50.367Z,0
2022-08-08T00:43:29.128Z,0
2022-08-08T00:45:07.855Z,0
2022-08-08T00:46:46.600Z,0
2022-08-08T00:48:25.358Z,0
2022-08-08T00:50:04.098Z,0
2022-08-08T00:51:42.858Z,0
2022-08-08T00:53:21.598Z,0
2022-08-08T00:55:00.351Z,0
2022-08-08T00:56:39.113Z,0
2022-08-08T00:58:17.852Z,0
2022-08-08T00:59:56.597Z,0
2022-08-08T01:01:35.338Z,0
2022-08-08T01:05:43.383Z,0
2022-08-08T01:06:49.872Z,0
2022-08-08T01:08:58.959Z,0
2022-08-08T01:10:05.406Z,0
2022-08-08T01:11:11.853Z,0
2022-08-08T01:12:18.279Z,0
2022-08-08T01:13:24.723Z,0
2022-08-08T01:14:31.160Z,0
2022-08-08T01:15:37.598Z,0
2022-08-08T01:16:44.037Z,0
2022-08-08T01:17:50.479Z,0
2022-08-08T01:18:56.918Z,0
2022-08-08T01:20:03.355Z,0
2022-08-08T01:21:09.793Z,0
2022-08-08T01:22:16.228Z,0
2022-08-08T01:23:22.685Z,0
2022-08-08T01:24:29.120Z,0
2022-08-08T01:25:35.525Z,0
2022-08-08T01:26:41.956Z,0
2022-08-08T01:27:48.389Z,0
2022-08-08T01:28:54.836Z,0
2022-08-08T01:30:01.265Z,0
2022-08-08T01:31:07.702Z,0
2022-08-08T01:32:14.141Z,0
2022-08-08T01:33:20.573Z,0
2022-08-08T01:34:27.030Z,0
2022-08-08T01:35:33.578Z,0
2022-08-08T01:36:40.127Z,0
2022-08-08T01:37:46.689Z,0
2022-08-08T01:38:53.270Z,0
2022-08-08T01:39:59.811Z,0
2022-08-08T01:41:06.375Z,0
2022-08-08T01:42:12.933Z,0
2022-08-08T01:43:19.497Z,0
2022-08-08T01:44:26.054Z,0
2022-08-08T01:45:32.626Z,0
2022-08-08T01:46:39.179Z,0
2022-08-08T01:47:45.749Z,0
2022-08-08T01:48:52.303Z,0
2022-08-08T01:50:25.360Z,0
2022-08-08T01:51:32.162Z,0
2022-08-08T01:52:38.969Z,0
2022-08-08T01:53:45.774Z,0
2022-08-08T01:54:52.577Z,0
2022-08-08T01:55:59.387Z,0
2022-08-08T01:57:06.192Z,0
2022-08-08T01:58:13.002Z,0
2022-08-08T01:59:19.810Z,0
2022-08-08T02:00:26.617Z,0
2022-08-08T02:01:33.416Z,0
2022-08-08T02:02:40.226Z,0
2022-08-08T02:03:47.030Z,0
2022-08-08T02:07:05.150Z,0
2022-08-08T02:08:43.883Z,0
2022-08-08T02:10:22.631Z,0
2022-08-08T02:11:29.928Z,0
2022-08-08T02:12:37.219Z,0
2022-08-08T02:14:15.970Z,0
2022-08-08T02:15:54.705Z,0
2022-08-08T02:17:33.447Z,0
2022-08-08T02:19:12.201Z,0
2022-08-08T02:20:50.934Z,0
2022-08-08T02:22:29.696Z,0
2022-08-08T02:24:08.435Z,0
2022-08-08T02:25:47.195Z,0
2022-08-08T02:27:57.967Z,0
2022-08-08T02:29:53.356Z,0
2022-08-08T02:30:59.799Z,0
2022-08-08T02:32:06.229Z,0
2022-08-08T02:33:12.651Z,0
2022-08-08T02:34:19.085Z,0
2022-08-08T02:35:25.534Z,0
2022-08-08T02:36:31.952Z,0
2022-08-08T02:37:38.393Z,0
2022-08-08T02:38:44.829Z,0
2022-08-08T02:39:51.268Z,0
2022-08-08T02:40:57.714Z,0
2022-08-08T02:42:04.145Z,0
2022-08-08T02:43:10.579Z,0
2022-08-08T02:44:17.014Z,0
2022-08-08T02:45:23.461Z,0
2022-08-08T02:46:29.896Z,0
2022-08-08T02:47:36.330Z,0
2022-08-08T02:48:42.763Z,0
2022-08-08T02:49:49.226Z,0
2022-08-08T02:50:55.635Z,0
2022-08-08T02:52:02.086Z,0
2022-08-08T02:53:08.513Z,0
2022-08-08T02:54:14.932Z,0
2022-08-08T02:55:21.372Z,0
2022-08-08T02:56:27.802Z,0
2022-08-08T02:57:34.385Z,0
2022-08-08T02:58:40.935Z,0
2022-08-08T02:59:47.511Z,0
2022-08-08T03:00:54.055Z,0
2022-08-08T03:02:00.620Z,0
2022-08-08T03:03:07.177Z,0
2022-08-08T03:04:13.751Z,0
2022-08-08T03:05:20.295Z,0
2022-08-08T03:06:26.855Z,0
2022-08-08T03:07:33.430Z,0
2022-08-08T03:08:39.978Z,0
2022-08-08T03:09:46.533Z,0
2022-08-08T03:10:53.093Z,0
2022-08-08T03:12:00.863Z,0
2022-08-08T03:13:07.659Z,0
2022-08-08T03:14:14.469Z,0
2022-08-08T03:15:21.280Z,0
2022-08-08T03:16:28.087Z,0
2022-08-08T03:17:34.923Z,0
2022-08-08T03:18:41.711Z,0
2022-08-08T03:19:48.504Z,0
2022-08-08T03:20:55.313Z,0
2022-08-08T03:22:02.113Z,0
2022-08-08T03:23:08.932Z,0
2022-08-08T03:24:15.719Z,0
2022-08-08T03:25:22.521Z,0
2022-08-08T03:28:40.654Z,0
2022-08-08T03:29:47.952Z,0
2022-08-08T03:30:55.241Z,0
2022-08-08T03:32:33.989Z,0
2022-08-08T03:34:12.738Z,0
2022-08-08T03:35:51.488Z,0
2022-08-08T03:37:30.229Z,0
2022-08-08T03:39:08.996Z,0
2022-08-08T03:40:47.728Z,0
2022-08-08T03:42:26.476Z,0
2022-08-08T03:44:05.228Z,0
2022-08-08T03:45:43.947Z,0
2022-08-08T03:46:51.238Z,0
2022-08-08T03:49:51.959Z,0
2022-08-08T03:53:07.511Z,0
2022-08-08T03:54:13.897Z,5
2022-08-08T03:55:20.304Z,5
2022-08-08T03:56:26.706Z,5
2022-08-08T03:57:33.101Z,5
2022-08-08T03:58:39.535Z,11
2022-08-08T03:59:45.945Z,11
2022-08-08T04:00:52.341Z,11
2022-08-08T04:01:58.736Z,11
2022-08-08T04:03:05.135Z,11
2022-08-08T04:04:11.541Z,16
2022-08-08T04:05:17.958Z,16
2022-08-08T04:06:24.353Z,16
2022-08-08T04:07:30.768Z,22
2022-08-08T04:08:37.169Z,22
2022-08-08T04:09:43.542Z,22
2022-08-08T04:10:49.950Z,22
2022-08-08T04:11:56.361Z,28
2022-08-08T04:13:02.768Z,28
2022-08-08T04:14:09.171Z,28
2022-08-08T04:15:15.573Z,33
2022-08-08T04:16:21.978Z,33
2022-08-08T04:17:28.371Z,39
2022-08-08T04:18:34.776Z,39
2022-08-08T04:19:41.179Z,39
2022-08-08T04:20:47.709Z,45
2022-08-08T04:21:54.216Z,45
2022-08-08T04:23:00.742Z,50
2022-08-08T04:24:07.265Z,50
2022-08-08T04:25:13.794Z,56
2022-08-08T04:26:20.315Z,56
2022-08-08T04:27:26.846Z,56
2022-08-08T04:28:33.352Z,61
2022-08-08T04:29:39.877Z,61
2022-08-08T04:30:46.398Z,67
2022-08-08T04:31:52.922Z,67
2022-08-08T04:32:59.438Z,73
2022-08-08T04:34:05.963Z,73
2022-08-08T04:35:12.671Z,73
2022-08-08T04:36:19.442Z,78
2022-08-08T04:37:26.225Z,78
2022-08-08T04:38:33.010Z,84
2022-08-08T04:39:39.780Z,84
2022-08-08T04:40:46.558Z,84
2022-08-08T04:41:53.333Z,90
2022-08-08T04:43:00.111Z,90
2022-08-08T04:44:06.862Z,90
2022-08-08T04:45:13.625Z,90
2022-08-08T04:46:20.393Z,95
2022-08-08T04:47:27.167Z,95
2022-08-08T04:48:33.929Z,101
2022-08-08T04:51:14.419Z,101
2022-08-08T04:52:53.131Z,106
2022-08-08T04:54:31.857Z,112
2022-08-08T04:56:10.579Z,112
2022-08-08T04:57:17.840Z,118
2022-08-08T04:58:25.101Z,118
2022-08-08T05:00:03.837Z,123
2022-08-08T05:01:42.571Z,123
2022-08-08T05:03:21.271Z,123
2022-08-08T05:05:00.000Z,129
2022-08-08T05:06:38.740Z,129
2022-08-08T05:08:17.448Z,129
2022-08-08T05:09:56.160Z,135
2022-08-08T05:13:45.886Z,135
2022-08-08T05:14:54.132Z,140
2022-08-08T05:18:11.532Z,146
2022-08-08T05:21:28.934Z,151
2022-08-08T05:24:46.382Z,157
2022-08-08T05:28:03.778Z,163
2022-08-08T05:31:21.234Z,168
2022-08-08T05:34:38.679Z,168
2022-08-08T05:37:56.141Z,174
2022-08-08T05:41:13.577Z,180
2022-08-08T05:44:30.967Z,185
2022-08-08T05:46:39.851Z,191
2022-08-08T05:47:48.414Z,191
2022-08-08T05:53:34.081Z,191
2022-08-08T05:56:51.534Z,208
2022-08-08T06:00:08.981Z,208
2022-08-08T06:03:26.388Z,213
2022-08-08T06:06:43.802Z,219
2022-08-08T06:10:01.188Z,219
2022-08-08T06:13:18.622Z,225
2022-08-08T06:16:36.070Z,230
2022-08-08T06:19:35.162Z,230
2022-08-08T06:20:42.119Z,230
2022-08-08T06:23:59.568Z,236
2022-08-08T06:27:16.998Z,236
2022-08-08T06:30:34.434Z,236
2022-08-08T06:36:20.091Z,241
2022-08-08T06:39:37.508Z,241
2022-08-08T06:42:54.955Z,247
2022-08-08T06:46:12.371Z,253
2022-08-08T06:49:29.787Z,253
2022-08-08T06:52:27.832Z,241
2022-08-08T06:53:36.097Z,258
2022-08-08T06:56:53.504Z,258
2022-08-08T07:00:10.924Z,264
2022-08-08T07:03:28.372Z,270
2022-08-08T07:06:45.840Z,270
2022-08-08T07:10:03.222Z,275
2022-08-08T07:13:20.609Z,281
2022-08-08T07:19:06.265Z,281
2022-08-08T07:22:23.714Z,292
2022-08-08T07:25:21.812Z,298
2022-08-08T07:26:30.066Z,298
2022-08-08T07:29:47.472Z,303
2022-08-08T07:33:04.893Z,303
2022-08-08T07:36:22.325Z,309
2022-08-08T07:39:37.865Z,1985
2022-08-08T07:40:44.203Z,2041
2022-08-08T07:41:50.548Z,2250
2022-08-08T07:42:56.892Z,1350
2022-08-08T07:44:03.238Z,1102
2022-08-08T07:45:09.571Z,978
2022-08-08T07:46:15.952Z,1940
2022-08-08T07:47:22.265Z,2396
2022-08-08T07:48:28.615Z,2413
2022-08-08T07:49:34.956Z,2430
2022-08-08T07:50:41.303Z,2475
2022-08-08T07:51:47.646Z,2503
2022-08-08T07:52:53.995Z,2480
2022-08-08T07:54:00.338Z,2520
2022-08-08T07:55:06.691Z,2604
2022-08-08T07:56:13.032Z,2626
2022-08-08T07:57:19.381Z,2548
2022-08-08T07:58:25.717Z,2542
2022-08-08T07:59:32.063Z,2424
2022-08-08T08:00:38.403Z,2317
2022-08-08T08:01:44.753Z,2458
2022-08-08T08:03:57.433Z,2548
2022-08-08T08:05:03.788Z,2441
2022-08-08T08:06:10.129Z,2311
2022-08-08T08:07:16.553Z,2098
2022-08-08T08:08:22.958Z,1991
2022-08-08T08:09:29.386Z,2025
2022-08-08T08:10:35.782Z,1996
2022-08-08T08:11:42.176Z,2019
2022-08-08T08:12:48.581Z,2126
2022-08-08T08:13:54.989Z,2188
2022-08-08T08:15:01.396Z,2255
2022-08-08T08:16:07.800Z,2446
2022-08-08T08:17:14.205Z,2525
2022-08-08T08:18:20.618Z,2480
2022-08-08T08:19:27.004Z,2368
2022-08-08T08:20:33.414Z,2255
2022-08-08T08:21:39.940Z,2272
2022-08-08T08:22:46.465Z,2435
2022-08-08T08:23:52.990Z,2508
2022-08-08T08:24:59.519Z,2475
2022-08-08T08:26:06.044Z,2581
2022-08-08T08:27:12.578Z,2745
2022-08-08T08:28:19.111Z,2778
2022-08-08T08:29:25.636Z,2874
2022-08-08T08:30:32.158Z,2868
2022-08-08T08:31:38.700Z,2863
2022-08-08T08:32:45.209Z,2947
2022-08-08T08:33:51.735Z,2857
2022-08-08T08:34:58.299Z,2767
2022-08-08T08:37:53.527Z,2891
2022-08-08T08:39:00.280Z,2891
2022-08-08T08:40:07.056Z,2970
2022-08-08T08:41:13.823Z,3015
2022-08-08T08:42:20.591Z,2919
2022-08-08T08:43:27.387Z,3009
2022-08-08T08:44:34.130Z,3189
2022-08-08T08:45:40.903Z,3138
2022-08-08T08:46:47.662Z,3054
2022-08-08T08:47:54.441Z,2874
2022-08-08T08:49:01.203Z,2851
2022-08-08T08:50:07.983Z,2953
2022-08-08T08:51:14.761Z,3065
2022-08-08T08:54:32.887Z,2896
2022-08-08T08:56:08.484Z,3037
2022-08-08T08:57:15.750Z,3121
2022-08-08T08:58:54.483Z,2902
2022-08-08T09:00:33.232Z,3037
2022-08-08T09:02:11.974Z,2874
2022-08-08T09:03:50.729Z,2750
2022-08-08T09:05:29.470Z,2998
2022-08-08T09:07:08.207Z,2919
2022-08-08T09:08:46.955Z,2615
2022-08-08T09:10:25.698Z,2458
2022-08-08T09:12:04.451Z,2750
2022-08-08T09:13:11.720Z,2829
2022-08-08T09:16:12.495Z,2632
2022-08-08T09:19:28.478Z,2401
2022-08-08T09:20:35.213Z,2688
2022-08-08T09:21:41.986Z,2570
2022-08-08T09:22:48.773Z,2401
2022-08-08T09:23:55.534Z,2345
2022-08-08T09:25:02.307Z,2148
2022-08-08T09:26:09.084Z,2165
2022-08-08T09:27:15.851Z,2430
2022-08-08T09:28:22.620Z,2542
2022-08-08T09:29:29.388Z,2418
2022-08-08T09:30:36.159Z,2458
2022-08-08T09:31:42.927Z,2559
2022-08-08T09:32:49.705Z,2452
2022-08-08T09:33:56.472Z,2503
2022-08-08T09:35:03.270Z,2615
2022-08-08T09:36:10.012Z,2587
2022-08-08T09:37:16.785Z,2480
2022-08-08T09:38:23.667Z,2250
2022-08-08T09:39:30.325Z,2143
2022-08-08T09:40:37.122Z,2176
2022-08-08T09:41:43.871Z,2081
2022-08-08T09:42:50.649Z,2041
2022-08-08T09:43:57.417Z,2030
2022-08-08T09:45:04.202Z,1991
2022-08-08T09:46:10.965Z,1946
2022-08-08T09:47:44.378Z,1923
2022-08-08T09:48:51.670Z,1839
2022-08-08T09:50:30.407Z,1788
2022-08-08T09:52:09.166Z,1800
2022-08-08T09:53:47.915Z,1884
2022-08-08T09:55:26.669Z,1833
2022-08-08T09:57:05.409Z,1856
2022-08-08T09:58:44.183Z,1856
2022-08-08T10:00:22.912Z,1878
2022-08-08T10:02:01.644Z,1895
2022-08-08T10:03:40.381Z,1912
2022-08-08T10:04:47.653Z,1738
2022-08-08T10:05:54.925Z,1856
2022-08-08T10:10:02.968Z,1856
2022-08-08T10:13:18.681Z,1749
2022-08-08T10:14:25.239Z,1895
2022-08-08T10:15:31.761Z,1906
2022-08-08T10:16:38.273Z,1935
2022-08-08T10:17:44.825Z,1940
2022-08-08T10:18:51.351Z,1906
2022-08-08T10:19:57.867Z,1912
2022-08-08T10:21:04.405Z,1923
2022-08-08T10:22:10.965Z,1918
2022-08-08T10:23:17.462Z,1929
2022-08-08T10:24:23.984Z,1963
2022-08-08T10:25:30.520Z,1946
2022-08-08T10:26:37.055Z,1929
2022-08-08T10:27:43.565Z,1946
2022-08-08T10:28:50.101Z,1974
2022-08-08T10:29:56.669Z,1991
2022-08-08T10:31:03.173Z,1968
2022-08-08T10:32:09.696Z,1991
2022-08-08T10:33:16.244Z,1991
2022-08-08T10:34:22.779Z,1996
2022-08-08T10:35:29.302Z,2013
2022-08-08T10:36:35.844Z,2019
2022-08-08T10:37:42.361Z,2047
2022-08-08T10:38:48.907Z,2058
2022-08-08T10:39:55.443Z,2075
2022-08-08T10:41:02.206Z,2081
2022-08-08T10:42:08.982Z,2081
2022-08-08T10:43:15.767Z,2086
2022-08-08T10:44:22.534Z,2092
2022-08-08T10:45:29.341Z,2126
2022-08-08T10:46:36.109Z,2115
2022-08-08T10:47:42.879Z,2041
2022-08-08T10:48:49.663Z,725
2022-08-08T10:49:56.441Z,545
2022-08-08T10:51:03.236Z,517
2022-08-08T10:52:10.006Z,523
2022-08-08T10:53:16.785Z,540
2022-08-08T10:54:23.549Z,562
2022-08-08T10:57:41.726Z,613
2022-08-08T10:59:20.475Z,2070
2022-08-08T11:00:59.224Z,2092
2022-08-08T11:02:06.529Z,2008
2022-08-08T11:03:13.778Z,2098
2022-08-08T11:04:52.480Z,2115
2022-08-08T11:06:31.222Z,2160
2022-08-08T11:08:09.986Z,2126
2022-08-08T11:09:48.751Z,2199
2022-08-08T11:11:27.495Z,2221
2022-08-08T11:13:06.272Z,2205
2022-08-08T11:14:44.944Z,2188
2022-08-08T11:16:23.704Z,2221
2022-08-08T11:18:34.544Z,2193
2022-08-08T11:20:29.987Z,2250
2022-08-08T11:21:36.502Z,2289
2022-08-08T11:22:43.041Z,2278
2022-08-08T11:23:49.570Z,2306
2022-08-08T11:24:56.110Z,2317
2022-08-08T11:26:02.650Z,2379
2022-08-08T11:28:15.707Z,2458
2022-08-08T11:29:22.251Z,2503
2022-08-08T11:30:28.822Z,933
2022-08-08T11:31:35.343Z,1901
2022-08-08T11:32:41.859Z,826
2022-08-08T11:33:48.403Z,787
2022-08-08T11:34:54.894Z,1558
2022-08-08T11:36:01.428Z,1603
2022-08-08T11:37:07.955Z,2610
2022-08-08T11:38:14.486Z,2542
2022-08-08T11:39:21.039Z,995
2022-08-08T11:40:27.563Z,826
2022-08-08T11:41:34.099Z,849
2022-08-08T11:42:40.614Z,2334
2022-08-08T11:43:47.140Z,2531
2022-08-08T11:44:53.693Z,2536
2022-08-08T11:46:00.209Z,2542
2022-08-08T11:47:06.739Z,2553
2022-08-08T11:48:13.516Z,2520
2022-08-08T11:49:20.296Z,2418
2022-08-08T11:50:27.073Z,725
2022-08-08T11:51:33.849Z,703
2022-08-08T11:52:40.625Z,708
2022-08-08T11:53:47.400Z,708
2022-08-08T11:54:54.173Z,725
2022-08-08T11:56:00.985Z,1248
2022-08-08T11:57:07.752Z,2553
2022-08-08T11:58:14.535Z,1822
2022-08-08T11:59:21.302Z,832
2022-08-08T12:00:28.078Z,826
2022-08-08T12:01:34.846Z,804
2022-08-08T12:04:14.404Z,905
2022-08-08T12:05:53.155Z,2694
2022-08-08T12:07:31.930Z,2666
2022-08-08T12:09:10.690Z,1243
2022-08-08T12:10:17.947Z,2081
2022-08-08T12:11:25.225Z,2615
2022-08-08T12:13:03.927Z,1704
2022-08-08T12:14:42.654Z,945
2022-08-08T12:16:21.415Z,2576
2022-08-08T12:18:00.166Z,1220
2022-08-08T12:19:38.939Z,2655
2022-08-08T12:21:17.682Z,2565
2022-08-08T12:22:56.435Z,2199
2022-08-08T12:26:45.977Z,838
2022-08-08T12:27:52.550Z,2475
2022-08-08T12:28:59.081Z,2480
2022-08-08T12:30:15.619Z,2520
2022-08-08T12:31:12.144Z,2486
2022-08-08T12:32:18.681Z,2491
2022-08-08T12:33:25.218Z,2581
2022-08-08T12:34:31.748Z,2548
2022-08-08T12:35:38.283Z,2525
2022-08-08T12:36:44.830Z,956
2022-08-08T12:37:51.337Z,832
2022-08-08T12:38:57.880Z,815
2022-08-08T12:40:04.393Z,826
2022-08-08T12:41:10.911Z,916
2022-08-08T12:42:17.409Z,2266
2022-08-08T12:43:23.957Z,1451
2022-08-08T12:44:30.476Z,1850
2022-08-08T12:45:37.012Z,2278
2022-08-08T12:46:43.559Z,2317
2022-08-08T12:47:50.077Z,2323
2022-08-08T12:48:56.610Z,2295
2022-08-08T12:50:03.138Z,2368
2022-08-08T12:51:09.680Z,2368
2022-08-08T12:52:16.210Z,2328
2022-08-08T12:53:22.744Z,2328
2022-08-08T12:54:29.281Z,2345
2022-08-08T12:55:36.055Z,2317
2022-08-08T12:56:42.828Z,2238
2022-08-08T12:57:49.610Z,2278
2022-08-08T12:58:56.390Z,2272
2022-08-08T13:00:03.188Z,2244
2022-08-08T13:01:09.954Z,2238
2022-08-08T13:02:16.742Z,2283
2022-08-08T13:03:23.513Z,2345
2022-08-08T13:04:30.299Z,2306
2022-08-08T13:05:37.071Z,2250
2022-08-08T13:06:43.854Z,2244
2022-08-08T13:07:50.644Z,2210
2022-08-08T13:08:57.422Z,2188
2022-08-08T13:11:36.688Z,2250
2022-08-08T13:13:15.438Z,2266
2022-08-08T13:14:54.197Z,1321
2022-08-08T13:16:32.915Z,725
2022-08-08T13:17:40.155Z,1777
2022-08-08T13:18:47.419Z,1974
2022-08-08T13:20:26.139Z,646
2022-08-08T13:22:04.898Z,1648
2022-08-08T13:23:43.647Z,1226
2022-08-08T13:25:22.397Z,2008
2022-08-08T13:27:01.141Z,641
2022-08-08T13:28:39.859Z,1991
2022-08-08T13:30:18.614Z,2131
2022-08-08T13:34:08.195Z,2070
2022-08-08T13:35:14.672Z,2041
2022-08-08T13:36:21.069Z,2013
2022-08-08T13:37:27.475Z,1968
2022-08-08T13:38:33.928Z,1923
2022-08-08T13:39:40.301Z,1417
2022-08-08T13:40:46.717Z,1963
2022-08-08T13:41:53.127Z,1929
2022-08-08T13:42:59.542Z,1895
2022-08-08T13:44:05.948Z,1901
2022-08-08T13:45:12.361Z,1878
2022-08-08T13:46:18.775Z,1861
2022-08-08T13:47:25.208Z,1850
2022-08-08T13:48:31.589Z,1850
2022-08-08T13:49:38.012Z,1850
2022-08-08T13:50:44.406Z,1850
2022-08-08T13:51:50.817Z,1867
2022-08-08T13:52:57.242Z,1856
2022-08-08T13:54:03.668Z,1856
2022-08-08T13:55:10.058Z,1845
2022-08-08T13:56:16.479Z,1816
2022-08-08T13:57:22.866Z,1811
2022-08-08T13:58:29.291Z,1755
2022-08-08T13:59:35.694Z,1822
2022-08-08T14:00:42.146Z,984
2022-08-08T14:01:48.567Z,855
2022-08-08T14:02:55.140Z,1890
2022-08-08T14:04:01.664Z,1901
2022-08-08T14:05:08.199Z,1642
2022-08-08T14:06:14.727Z,1428
2022-08-08T14:07:21.261Z,1051
2022-08-08T14:08:27.789Z,984
2022-08-08T14:09:34.338Z,956
2022-08-08T14:10:40.877Z,945
2022-08-08T14:11:47.390Z,793
2022-08-08T14:12:53.918Z,793
2022-08-08T14:14:00.479Z,765
2022-08-08T14:15:06.967Z,961
2022-08-08T14:16:13.502Z,973
2022-08-08T14:18:02.809Z,916
2022-08-08T14:19:09.600Z,1777
2022-08-08T14:20:16.375Z,1760
2022-08-08T14:21:23.141Z,1755
2022-08-08T14:22:29.931Z,1743
2022-08-08T14:23:36.712Z,1743
2022-08-08T14:24:43.488Z,1732
2022-08-08T14:25:50.259Z,1732
2022-08-08T14:26:57.055Z,1738
2022-08-08T14:28:03.820Z,1721
2022-08-08T14:29:10.600Z,1231
2022-08-08T14:30:17.394Z,815
2022-08-08T14:31:24.161Z,1445
2022-08-08T14:34:42.341Z,1434
2022-08-08T14:36:17.844Z,1361
2022-08-08T14:37:25.082Z,928
2022-08-08T14:39:03.810Z,843
2022-08-08T14:40:42.512Z,871
2022-08-08T14:42:21.208Z,517
2022-08-08T14:43:59.924Z,658
2022-08-08T14:45:38.641Z,450
2022-08-08T14:47:17.346Z,438
2022-08-08T14:48:56.060Z,562
2022-08-08T14:50:34.781Z,877
2022-08-08T14:52:13.513Z,556
2022-08-08T14:53:20.759Z,523
2022-08-08T14:56:21.506Z,523
2022-08-08T14:59:38.952Z,787
2022-08-08T15:02:56.359Z,652
2022-08-08T15:06:13.790Z,1198
2022-08-08T15:09:29.397Z,1198
2022-08-08T15:10:35.777Z,1395
2022-08-08T15:11:42.182Z,1468
2022-08-08T15:12:48.592Z,1580
2022-08-08T15:13:54.988Z,1653
2022-08-08T15:15:01.406Z,1631
2022-08-08T15:16:07.792Z,1575
2022-08-08T15:17:14.196Z,1456
2022-08-08T15:18:20.605Z,1333
2022-08-08T15:19:27.008Z,1338
2022-08-08T15:20:33.411Z,1378
2022-08-08T15:21:39.823Z,1411
2022-08-08T15:22:46.223Z,1366
2022-08-08T15:23:52.634Z,1321
2022-08-08T15:24:59.039Z,1271
2022-08-08T15:26:05.438Z,1271
2022-08-08T15:27:11.863Z,1310
2022-08-08T15:28:18.257Z,1333
2022-08-08T15:29:24.663Z,1310
2022-08-08T15:30:31.065Z,1260
2022-08-08T15:31:37.477Z,1175
2022-08-08T15:32:43.885Z,1220
2022-08-08T15:33:50.282Z,1288
2022-08-08T15:34:56.684Z,1276
2022-08-08T15:36:03.090Z,1265
2022-08-08T15:37:09.628Z,1316
2022-08-08T15:38:16.153Z,1215
2022-08-08T15:39:22.686Z,1226
2022-08-08T15:40:29.224Z,1260
2022-08-08T15:41:35.749Z,1260
2022-08-08T15:42:42.261Z,1282
2022-08-08T15:43:48.790Z,1321
2022-08-08T15:44:55.312Z,1366
2022-08-08T15:46:01.846Z,1338
2022-08-08T15:47:08.379Z,1338
2022-08-08T15:48:14.897Z,1310
2022-08-08T15:49:21.438Z,1282
2022-08-08T15:50:27.957Z,1243
2022-08-08T15:52:17.303Z,1243
2022-08-08T15:53:24.063Z,1265
2022-08-08T15:54:30.833Z,1305
2022-08-08T15:55:37.612Z,1305
2022-08-08T15:56:44.383Z,1276
2022-08-08T15:57:51.153Z,1299
2022-08-08T15:58:57.922Z,1321
2022-08-08T16:00:04.702Z,1237
2022-08-08T16:01:11.478Z,1141
2022-08-08T16:02:18.293Z,1130
2022-08-08T16:03:25.108Z,540
2022-08-08T16:04:31.856Z,472
2022-08-08T16:05:38.630Z,579
2022-08-08T16:08:56.841Z,573
2022-08-08T16:10:35.553Z,540
2022-08-08T16:12:59.963Z,286
2022-08-08T16:13:00.111Z,495
2022-08-08T16:14:28.799Z,275
2022-08-08T16:16:07.522Z,275
2022-08-08T16:17:46.231Z,270
2022-08-08T16:19:24.941Z,281
2022-08-08T16:21:03.660Z,365
2022-08-08T16:22:42.380Z,270
2022-08-08T16:24:21.089Z,264
2022-08-08T16:25:59.802Z,258
2022-08-08T16:27:38.518Z,258
2022-08-08T16:29:18.243Z,298
2022-08-08T16:32:35.658Z,360
2022-08-08T16:35:53.077Z,511
2022-08-08T16:39:10.500Z,382
2022-08-08T16:42:27.951Z,258
2022-08-08T16:45:45.356Z,253
2022-08-08T16:49:02.776Z,236
2022-08-08T16:52:20.207Z,236
2022-08-08T16:54:56.768Z,236
2022-08-08T16:55:37.643Z,236
2022-08-08T16:58:55.080Z,236
2022-08-08T17:02:23.299Z,236
2022-08-08T17:05:29.936Z,225
2022-08-08T17:11:15.643Z,219
2022-08-08T17:14:33.114Z,219
2022-08-08T17:17:52.338Z,202
2022-08-08T17:21:07.939Z,196
2022-08-08T17:24:25.385Z,185
2022-08-08T17:26:22.455Z,180
2022-08-08T17:27:42.808Z,174
2022-08-08T17:31:00.259Z,174
2022-08-08T17:34:17.718Z,168
2022-08-08T17:37:35.144Z,157
2022-08-08T17:40:52.570Z,157
2022-08-08T17:44:09.999Z,151
2022-08-08T17:47:27.472Z,151
2022-08-08T17:53:13.160Z,140
2022-08-08T17:56:30.562Z,135
2022-08-08T17:59:16.490Z,129
2022-08-08T18:00:24.743Z,123
2022-08-08T18:03:42.175Z,123
2022-08-08T18:06:59.596Z,118
2022-08-08T18:10:17.045Z,112
2022-08-08T18:13:34.478Z,106
2022-08-08T18:16:51.911Z,101
2022-08-08T18:20:09.363Z,90
2022-08-08T18:23:24.883Z,84
2022-08-08T18:24:31.223Z,78
2022-08-08T18:25:37.559Z,78
2022-08-08T18:26:43.903Z,78
2022-08-08T18:27:50.266Z,73
2022-08-08T18:28:56.570Z,73
2022-08-08T18:30:02.935Z,67
2022-08-08T18:31:09.253Z,67
2022-08-08T18:32:15.604Z,67
2022-08-08T18:33:21.921Z,61
2022-08-08T18:34:28.295Z,61
2022-08-08T18:35:34.604Z,56
2022-08-08T18:36:40.963Z,56
2022-08-08T18:37:47.313Z,56
2022-08-08T18:38:53.655Z,50
2022-08-08T18:39:59.993Z,50
2022-08-08T18:41:06.329Z,50
2022-08-08T18:42:12.656Z,45
2022-08-08T18:43:18.991Z,45
2022-08-08T18:44:25.329Z,45
2022-08-08T18:45:31.691Z,39
2022-08-08T18:46:38.006Z,39
2022-08-08T18:47:44.343Z,39
2022-08-08T18:48:50.701Z,33
2022-08-08T18:49:57.019Z,33
2022-08-08T18:51:03.385Z,33
2022-08-08T18:52:09.807Z,28
2022-08-08T18:53:16.194Z,28
2022-08-08T18:54:22.604Z,28
2022-08-08T18:55:29.003Z,22
2022-08-08T18:56:35.416Z,22
2022-08-08T18:57:41.809Z,22
2022-08-08T18:58:48.214Z,16
2022-08-08T18:59:54.616Z,16
2022-08-08T19:01:01.021Z,16
2022-08-08T19:02:07.422Z,16
2022-08-08T19:03:13.836Z,11
2022-08-08T19:04:20.267Z,11
2022-08-08T19:05:26.792Z,11
2022-08-08T19:06:33.304Z,11
2022-08-08T19:07:39.862Z,11
2022-08-08T19:08:46.348Z,5
2022-08-08T19:09:52.878Z,5
2022-08-08T19:10:59.396Z,5
2022-08-08T19:12:05.932Z,5
2022-08-08T19:13:12.443Z,5
2022-08-08T19:14:18.961Z,5
2022-08-08T19:15:25.483Z,5
2022-08-08T19:16:32.063Z,0
2022-08-08T19:17:38.624Z,0
2022-08-08T19:18:45.194Z,0
2022-08-08T19:21:40.432Z,0
2022-08-08T19:22:47.237Z,0
2022-08-08T19:23:54.046Z,0
2022-08-08T19:25:00.846Z,0
2022-08-08T19:26:07.646Z,0
2022-08-08T19:27:14.479Z,0
2022-08-08T19:28:21.249Z,0
2022-08-08T19:29:28.049Z,0
2022-08-08T19:30:34.852Z,0
2022-08-08T19:31:41.651Z,0
2022-08-08T19:32:48.456Z,0
2022-08-08T19:33:55.256Z,0
2022-08-08T19:35:02.057Z,0
2022-08-08T19:38:20.176Z,0
2022-08-08T19:39:55.692Z,0
2022-08-08T19:41:02.985Z,0
2022-08-08T19:42:41.733Z,0
2022-08-08T19:44:20.458Z,0
2022-08-08T19:45:59.191Z,0
2022-08-08T19:47:37.922Z,0
2022-08-08T19:49:16.669Z,0
2022-08-08T19:50:55.422Z,0
2022-08-08T19:52:34.124Z,0
2022-08-08T19:54:12.874Z,0
2022-08-08T19:55:51.588Z,0
2022-08-08T19:56:58.915Z,0
2022-08-08T19:59:59.593Z,0
2022-08-08T20:03:15.154Z,0
2022-08-08T20:04:21.598Z,0
2022-08-08T20:05:28.013Z,0
2022-08-08T20:06:34.454Z,0
2022-08-08T20:07:40.892Z,0
2022-08-08T20:08:47.322Z,0
2022-08-08T20:09:53.754Z,0
2022-08-08T20:11:00.198Z,0
2022-08-08T20:12:06.624Z,0
2022-08-08T20:13:13.063Z,0
2022-08-08T20:14:19.490Z,0
2022-08-08T20:15:25.950Z,0
2022-08-08T20:16:32.388Z,0
2022-08-08T20:17:38.803Z,0
2022-08-08T20:18:45.246Z,0
2022-08-08T20:19:51.681Z,0
2022-08-08T20:20:58.116Z,0
2022-08-08T20:22:04.552Z,0
2022-08-08T20:23:10.973Z,0
2022-08-08T20:24:17.410Z,0
2022-08-08T20:25:23.824Z,0
2022-08-08T20:26:30.265Z,0
2022-08-08T20:27:36.709Z,0
2022-08-08T20:28:43.135Z,0
2022-08-08T20:29:49.577Z,0
2022-08-08T20:30:56.149Z,0
2022-08-08T20:32:02.707Z,0
2022-08-08T20:33:09.256Z,0